EGNV/MME METAR and TAF weather

Enter ICAO airport designator
Station Type Date Time Source
EGNV METAR 2021/09/23 20:20 UTC NOAA

EGNV 232020Z 22008KT 9999 SCT021 15/11 Q1016


Station Type Date Time Source
EGNV Decoded METAR 2021/09/23 20:20 UTC NOAA

Tees-Side, United Kingdom (EGNV) 54-31N 001-25W
Sep 23, 2021 - 04:20 PM EDT / 2021.09.23 2020 UTC
Wind: from the SW (220 degrees) at 9 MPH (8 KT):0
Visibility: greater than 7 mile(s):0
Sky conditions: partly cloudy
Temperature: 59 F (15 C)
Dew Point: 51 F (11 C)
Relative Humidity: 76%
Pressure (altimeter): 30.00 in. Hg (1016 hPa)
ob: EGNV 232020Z 22008KT 9999 SCT021 15/11 Q1016
cycle: 20

Station Type Date Time Source
EGNV TAF 2021/06/27 18:09 UTC NOAA

TAF EGNV 271655Z 2718/2821 04009KT 9999 SCT012 BKN018 PROB40
TEMPO 2718/2821 BKN012

Example: see airport list